Time;durP1;ratioP1;P1;durP2;ratioP2;P2;SDS_P1;SDS_P2;PMS_P1;PMS_P2;Temp;Humidity;BMP_temperature;BMP_pressure;BME280_temperature;BME280_humidity;BME280_pressure;Samples;Min_cycle;Max_cycle;Signal;HPM_P1;HPM_P2
2023/09/01 00:02:46;;;;;;;13.85;4.63;;;;;14.60;96295.00;;;;8260459;28;20426;-72
2023/09/01 00:06:51;;;;;;;7.00;4.32;;;;;14.60;96293.00;;;;8283901;28;20639;-71
2023/09/01 00:10:57;;;;;;;8.13;4.43;;;;;14.60;96291.00;;;;8280782;28;20747;-71
2023/09/01 00:15:00;;;;;;;6.15;4.55;;;;;14.50;96301.00;;;;8272797;28;20286;-71
2023/09/01 00:19:03;;;;;;;9.98;4.65;;;;;14.50;96294.00;;;;8277339;28;20671;-71
2023/09/01 00:23:08;;;;;;;7.85;4.03;;;;;14.50;96305.00;;;;8275977;28;20194;-71
2023/09/01 00:27:12;;;;;;;9.45;4.38;;;;;14.50;96306.00;;;;8278805;28;20682;-71
2023/09/01 00:31:20;;;;;;;11.57;4.50;;;;;14.50;96304.00;;;;8273664;28;20242;-71
2023/09/01 00:35:25;;;;;;;10.77;5.10;;;;;14.60;96306.00;;;;8276290;28;20194;-71
2023/09/01 00:39:29;;;;;;;9.32;4.85;;;;;14.60;96295.00;;;;8236388;28;20241;-71
2023/09/01 00:43:34;;;;;;;8.10;4.65;;;;;14.60;96297.00;;;;8266208;28;20203;-71
2023/09/01 00:47:37;;;;;;;10.60;4.78;;;;;14.60;96292.00;;;;8267862;28;20804;-71
2023/09/01 00:51:41;;;;;;;9.43;5.10;;;;;14.60;96280.00;;;;8254007;28;20221;-71
2023/09/01 00:55:56;;;;;;;7.22;4.78;;;;;14.50;96276.00;;;;8267755;28;20216;-71
2023/09/01 01:00:01;;;;;;;9.18;5.43;;;;;14.50;96276.00;;;;8270382;28;20209;-70
2023/09/01 01:04:07;;;;;;;10.48;5.20;;;;;14.50;96285.00;;;;8270531;28;20264;-70
2023/09/01 01:08:25;;;;;;;12.32;5.70;;;;;14.50;96284.00;;;;8274223;28;20199;-71
2023/09/01 01:12:39;;;;;;;11.77;5.05;;;;;14.50;96290.00;;;;8256061;28;20230;-71
2023/09/01 01:16:44;;;;;;;9.27;5.05;;;;;14.40;96285.00;;;;8266344;28;20205;-72
2023/09/01 01:20:56;;;;;;;12.68;5.32;;;;;14.30;96293.00;;;;8274925;28;20260;-72
2023/09/01 01:25:05;;;;;;;16.38;5.35;;;;;14.40;96291.00;;;;8267744;28;20198;-72
2023/09/01 01:29:11;;;;;;;10.63;5.60;;;;;14.40;96279.00;;;;8275815;28;20330;-74
2023/09/01 01:33:37;;;;;;;10.00;5.68;;;;;14.40;96273.00;;;;8275890;28;20203;-73
2023/09/01 01:37:51;;;;;;;18.27;5.57;;;;;14.40;96273.00;;;;8265801;28;20276;-74
2023/09/01 01:42:10;;;;;;;15.82;5.75;;;;;14.40;96274.00;;;;8270364;28;20708;-73
2023/09/01 01:46:14;;;;;;;18.30;6.00;;;;;14.40;96271.00;;;;8270104;28;20638;-74
2023/09/01 01:50:21;;;;;;;9.50;5.32;;;;;14.40;96264.00;;;;8260595;28;20313;-75
2023/09/01 01:54:24;;;;;;;11.30;5.43;;;;;14.40;96263.00;;;;8269806;28;20294;-74
2023/09/01 01:58:34;;;;;;;10.80;5.88;;;;;14.40;96260.00;;;;8279984;28;20564;-74
2023/09/01 02:02:38;;;;;;;13.02;5.68;;;;;14.40;96265.00;;;;8276950;28;20244;-74
2023/09/01 02:06:46;;;;;;;14.15;6.05;;;;;14.40;96265.00;;;;8276009;28;20206;-72
2023/09/01 02:10:50;;;;;;;10.75;6.28;;;;;14.40;96257.00;;;;8270692;28;20232;-72
2023/09/01 02:14:56;;;;;;;17.50;6.63;;;;;14.50;96267.00;;;;8271447;28;20202;-71
2023/09/01 02:19:01;;;;;;;16.83;6.85;;;;;14.50;96267.00;;;;8275820;28;20606;-70
2023/09/01 02:23:05;;;;;;;14.82;6.95;;;;;14.40;96257.00;;;;8269019;28;20234;-70
2023/09/01 02:27:09;;;;;;;16.77;7.57;;;;;14.40;96259.00;;;;8274421;28;20297;-69
2023/09/01 02:31:15;;;;;;;14.50;6.90;;;;;14.40;96257.00;;;;8264176;28;20320;-68
2023/09/01 02:35:20;;;;;;;13.63;7.68;;;;;14.40;96253.00;;;;8244759;28;20205;-68
2023/09/01 02:39:25;;;;;;;11.02;7.40;;;;;14.40;96249.00;;;;8265557;28;20202;-68
2023/09/01 02:43:31;;;;;;;15.65;7.55;;;;;14.40;96245.00;;;;8276509;28;20278;-68
2023/09/01 02:47:40;;;;;;;19.38;7.68;;;;;14.40;96240.00;;;;8270949;28;20716;-68
2023/09/01 02:51:43;;;;;;;16.33;8.05;;;;;14.40;96234.00;;;;8266636;28;20234;-69
2023/09/01 02:55:46;;;;;;;15.95;7.55;;;;;14.40;96235.00;;;;8271072;28;20293;-69
2023/09/01 02:59:53;;;;;;;13.68;7.43;;;;;14.40;96231.00;;;;8270476;28;20212;-69
2023/09/01 03:04:01;;;;;;;10.95;6.53;;;;;14.40;96221.00;;;;8351162;22;20234;-68
2023/09/01 03:08:05;;;;;;;10.23;6.18;;;;;14.40;96230.00;;;;8293874;28;20202;-69
2023/09/01 03:12:11;;;;;;;8.63;5.78;;;;;14.40;96235.00;;;;8293449;28;20948;-69
2023/09/01 03:16:14;;;;;;;9.93;5.75;;;;;14.50;96230.00;;;;8304337;28;20680;-69
2023/09/01 03:20:24;;;;;;;10.13;6.05;;;;;14.50;96231.00;;;;8295523;28;20210;-69
2023/09/01 03:24:27;;;;;;;9.38;5.47;;;;;14.50;96231.00;;;;8306682;28;20293;-69
2023/09/01 03:28:31;;;;;;;15.57;5.85;;;;;14.50;96234.00;;;;8304597;28;20239;-69
2023/09/01 03:32:34;;;;;;;13.02;5.65;;;;;14.60;96220.00;;;;8306032;28;20336;-68
2023/09/01 03:36:42;;;;;;;10.80;5.72;;;;;14.60;96222.00;;;;8301893;28;20209;-69
2023/09/01 03:40:45;;;;;;;10.55;5.90;;;;;14.60;96222.00;;;;8292645;28;20197;-69
2023/09/01 03:44:50;;;;;;;8.73;5.68;;;;;14.60;96223.00;;;;8299259;28;20634;-69
2023/09/01 03:48:53;;;;;;;12.60;6.60;;;;;14.60;96222.00;;;;8308844;28;20216;-70
2023/09/01 03:52:57;;;;;;;9.88;5.53;;;;;14.60;96218.00;;;;8290775;28;20229;-71
2023/09/01 03:57:02;;;;;;;10.40;6.28;;;;;14.70;96216.00;;;;8298060;28;20217;-71
2023/09/01 04:01:08;;;;;;;11.10;5.90;;;;;14.70;96216.00;;;;8295309;28;20309;-70
2023/09/01 04:05:14;;;;;;;12.50;6.10;;;;;14.70;96210.00;;;;8277108;28;20235;-69
2023/09/01 04:09:19;;;;;;;10.02;5.97;;;;;14.70;96209.00;;;;8277809;28;20207;-70
2023/09/01 04:13:23;;;;;;;10.00;6.00;;;;;14.80;96218.00;;;;8276063;28;20226;-68
2023/09/01 04:17:27;;;;;;;11.27;6.35;;;;;14.80;96203.00;;;;8284838;28;20285;-69
2023/09/01 04:21:30;;;;;;;10.57;6.40;;;;;14.80;96203.00;;;;8279038;28;20201;-69
2023/09/01 04:25:35;;;;;;;14.60;7.85;;;;;14.80;96190.00;;;;8261494;28;20226;-69
2023/09/01 04:29:40;;;;;;;12.15;6.80;;;;;14.80;96200.00;;;;8279155;28;20644;-68
2023/09/01 04:33:50;;;;;;;13.35;8.10;;;;;14.80;96196.00;;;;8278857;28;20642;-68
2023/09/01 04:37:54;;;;;;;14.68;7.85;;;;;14.80;96203.00;;;;8282225;28;20940;-68
2023/09/01 04:41:58;;;;;;;16.02;8.68;;;;;14.80;96200.00;;;;8239811;28;20198;-68
2023/09/01 04:46:08;;;;;;;15.43;8.05;;;;;14.80;96200.00;;;;8273404;28;20794;-66
2023/09/01 04:50:14;;;;;;;11.18;7.68;;;;;14.80;96208.00;;;;8283872;28;20198;-68
2023/09/01 04:54:18;;;;;;;16.33;7.50;;;;;14.70;96205.00;;;;8250620;28;20217;-67
2023/09/01 04:58:25;;;;;;;13.60;8.40;;;;;14.80;96205.00;;;;8263475;28;20203;-67
2023/09/01 05:02:28;;;;;;;16.45;8.50;;;;;14.80;96203.00;;;;8245108;28;20237;-67
2023/09/01 05:06:34;;;;;;;15.18;7.88;;;;;14.90;96203.00;;;;8273887;28;20233;-68
2023/09/01 05:10:37;;;;;;;15.02;7.88;;;;;14.90;96208.00;;;;8265562;28;20232;-69
2023/09/01 05:14:42;;;;;;;11.75;7.30;;;;;14.90;96209.00;;;;8268835;28;20943;-67
2023/09/01 05:18:49;;;;;;;13.93;7.20;;;;;14.90;96205.00;;;;8270427;28;20234;-67
2023/09/01 05:22:52;;;;;;;14.02;6.32;;;;;14.90;96212.00;;;;8272715;28;20290;-68
2023/09/01 05:26:56;;;;;;;15.10;6.85;;;;;14.90;96218.00;;;;8284597;28;20232;-68
2023/09/01 05:31:03;;;;;;;12.70;6.72;;;;;14.90;96212.00;;;;8277105;28;20325;-69
2023/09/01 05:35:08;;;;;;;14.63;7.15;;;;;15.00;96208.00;;;;8280602;28;20216;-70
2023/09/01 05:39:14;;;;;;;13.52;7.05;;;;;15.00;96223.00;;;;8280001;28;20202;-69
2023/09/01 05:43:17;;;;;;;11.77;6.90;;;;;15.00;96212.00;;;;8281815;28;20289;-70
2023/09/01 05:47:25;;;;;;;11.27;6.65;;;;;15.00;96213.00;;;;8280707;28;20202;-70
2023/09/01 05:51:28;;;;;;;12.52;5.97;;;;;15.00;96217.00;;;;8277765;28;20313;-69
2023/09/01 05:55:31;;;;;;;13.63;6.38;;;;;15.10;96218.00;;;;8275967;28;20236;-70
2023/09/01 05:59:34;;;;;;;12.25;6.60;;;;;15.20;96219.00;;;;8278683;28;20209;-69
2023/09/01 06:03:38;;;;;;;10.02;6.25;;;;;15.20;96228.00;;;;8278364;28;20604;-69
2023/09/01 06:07:45;;;;;;;12.20;6.88;;;;;15.20;96229.00;;;;8281315;28;20206;-70
2023/09/01 06:11:48;;;;;;;12.48;7.03;;;;;15.30;96240.00;;;;8260280;28;20226;-70
2023/09/01 06:15:51;;;;;;;9.07;6.63;;;;;15.30;96232.00;;;;8275742;28;20280;-69
2023/09/01 06:19:56;;;;;;;13.32;7.20;;;;;15.40;96237.00;;;;8252719;28;20212;-70
2023/09/01 06:24:00;;;;;;;12.35;7.25;;;;;15.50;96240.00;;;;8279550;28;20227;-69
2023/09/01 06:28:06;;;;;;;15.55;8.02;;;;;15.70;96239.00;;;;8280283;28;20284;-69
2023/09/01 06:32:11;;;;;;;13.48;7.63;;;;;15.80;96237.00;;;;8278477;28;20244;-69
2023/09/01 06:36:18;;;;;;;15.27;8.68;;;;;15.80;96244.00;;;;8277962;28;20202;-69
2023/09/01 06:40:22;;;;;;;20.02;10.05;;;;;16.00;96241.00;;;;8273591;28;20308;-69
2023/09/01 06:44:28;;;;;;;16.17;9.98;;;;;16.00;96242.00;;;;8274938;28;20297;-68
2023/09/01 06:48:31;;;;;;;21.48;10.93;;;;;16.00;96251.00;;;;8275461;28;20199;-67
2023/09/01 06:52:36;;;;;;;16.35;10.88;;;;;16.10;96251.00;;;;8279755;28;20233;-68
2023/09/01 06:56:41;;;;;;;19.00;10.68;;;;;16.40;96248.00;;;;8278293;28;20317;-68
2023/09/01 07:00:45;;;;;;;18.00;11.23;;;;;16.40;96250.00;;;;8274795;28;20205;-69
2023/09/01 07:04:49;;;;;;;22.30;11.25;;;;;16.60;96258.00;;;;8276577;28;21065;-69
2023/09/01 07:08:56;;;;;;;23.20;11.05;;;;;16.70;96259.00;;;;8277524;28;20210;-69
2023/09/01 07:13:01;;;;;;;15.75;10.93;;;;;16.90;96270.00;;;;8276668;28;20566;-69
2023/09/01 07:17:04;;;;;;;15.95;10.52;;;;;16.80;96267.00;;;;8277147;28;20202;-69
2023/09/01 07:21:08;;;;;;;18.42;10.55;;;;;16.80;96274.00;;;;8276372;28;20659;-69
2023/09/01 07:25:15;;;;;;;14.73;9.82;;;;;16.90;96276.00;;;;8275226;28;20219;-69
2023/09/01 07:29:18;;;;;;;14.13;9.90;;;;;16.90;96277.00;;;;8274423;28;20884;-68
2023/09/01 07:33:22;;;;;;;15.20;10.15;;;;;16.90;96272.00;;;;8273078;28;20237;-69
2023/09/01 07:37:25;;;;;;;15.27;8.98;;;;;16.90;96269.00;;;;8274403;28;20643;-69
2023/09/01 07:41:30;;;;;;;12.88;8.45;;;;;17.00;96267.00;;;;8274845;28;20214;-67
2023/09/01 07:45:36;;;;;;;13.18;7.68;;;;;17.00;96270.00;;;;8270570;28;20234;-70
2023/09/01 07:49:39;;;;;;;12.10;7.03;;;;;17.10;96276.00;;;;8274619;28;20201;-70
2023/09/01 07:53:45;;;;;;;10.50;7.50;;;;;17.10;96283.00;;;;8277750;28;20332;-71
2023/09/01 07:57:50;;;;;;;13.18;7.50;;;;;17.20;96287.00;;;;8274612;28;20217;-70
2023/09/01 08:01:57;;;;;;;12.27;6.60;;;;;17.40;96293.00;;;;8278412;28;20232;-71
2023/09/01 08:06:00;;;;;;;12.15;6.47;;;;;17.50;96300.00;;;;8280281;28;20198;-71
2023/09/01 08:10:05;;;;;;;8.38;5.88;;;;;17.60;96308.00;;;;8281115;28;20209;-71
2023/09/01 08:14:12;;;;;;;7.45;5.78;;;;;17.70;96299.00;;;;8280709;28;20316;-70
2023/09/01 08:18:16;;;;;;;10.80;5.80;;;;;17.80;96306.00;;;;8275115;28;20202;-71
2023/09/01 08:22:19;;;;;;;8.15;5.20;;;;;18.00;96307.00;;;;8278485;28;20244;-71
2023/09/01 08:26:24;;;;;;;9.00;5.18;;;;;18.40;96301.00;;;;8280882;28;20206;-71
2023/09/01 08:30:29;;;;;;;5.47;4.72;;;;;19.10;96306.00;;;;8277256;28;20289;-72
2023/09/01 08:34:32;;;;;;;8.20;4.63;;;;;19.80;96306.00;;;;8278229;28;20261;-72
2023/09/01 08:38:36;;;;;;;5.47;4.18;;;;;20.50;96303.00;;;;8281880;28;20658;-72
2023/09/01 08:42:46;;;;;;;4.57;3.88;;;;;21.30;96311.00;;;;8279291;28;20202;-71
2023/09/01 08:46:53;;;;;;;6.03;3.83;;;;;21.70;96316.00;;;;8276950;28;20206;-72
2023/09/01 08:50:57;;;;;;;6.68;3.13;;;;;21.70;96320.00;;;;8265235;28;20203;-72
2023/09/01 08:55:00;;;;;;;3.38;2.70;;;;;21.50;96327.00;;;;8278746;28;20221;-71
2023/09/01 08:59:03;;;;;;;3.60;2.90;;;;;21.40;96328.00;;;;8276037;28;20659;-69
2023/09/01 09:03:10;;;;;;;3.20;2.90;;;;;21.30;96329.00;;;;8278203;28;20688;-69
2023/09/01 09:07:15;;;;;;;7.65;2.75;;;;;21.30;96328.00;;;;8280082;28;20210;-69
2023/09/01 09:11:22;;;;;;;2.95;2.45;;;;;21.20;96338.00;;;;8277564;28;20209;-68
2023/09/01 09:15:25;;;;;;;6.70;2.80;;;;;20.90;96333.00;;;;8279792;28;20317;-69
2023/09/01 09:19:30;;;;;;;4.40;2.60;;;;;20.60;96343.00;;;;8276832;28;20233;-69
2023/09/01 09:23:43;;;;;;;3.92;2.47;;;;;20.40;96349.00;;;;8278426;28;20206;-70
2023/09/01 09:27:47;;;;;;;3.65;2.75;;;;;20.30;96344.00;;;;8277226;28;20202;-69
2023/09/01 09:31:53;;;;;;;2.53;2.42;;;;;20.30;96348.00;;;;8277073;28;20213;-69
2023/09/01 09:36:03;;;;;;;3.63;2.60;;;;;20.40;96338.00;;;;8279371;28;20202;-69
2023/09/01 09:40:17;;;;;;;2.90;2.20;;;;;20.50;96340.00;;;;8275803;28;20244;-70
2023/09/01 09:44:32;;;;;;;4.57;2.95;;;;;20.40;96350.00;;;;8278128;28;20288;-70
2023/09/01 09:48:36;;;;;;;5.25;2.72;;;;;20.40;96348.00;;;;8275631;28;20775;-70
2023/09/01 09:52:47;;;;;;;4.88;2.60;;;;;20.40;96340.00;;;;8279386;28;20278;-70
2023/09/01 09:56:52;;;;;;;5.25;2.60;;;;;20.40;96347.00;;;;8260779;28;20338;-70
2023/09/01 10:01:02;;;;;;;2.75;2.55;;;;;20.30;96350.00;;;;8278163;28;20349;-70
2023/09/01 10:05:11;;;;;;;3.42;2.80;;;;;20.40;96357.00;;;;8272192;28;20309;-70
2023/09/01 10:09:17;;;;;;;3.92;2.80;;;;;20.30;96347.00;;;;8277551;28;20205;-70
2023/09/01 10:13:22;;;;;;;2.92;2.60;;;;;20.40;96348.00;;;;8276674;28;20338;-70
2023/09/01 10:17:26;;;;;;;3.72;2.80;;;;;20.80;96352.00;;;;8281057;28;20230;-71
2023/09/01 10:21:29;;;;;;;2.78;2.40;;;;;21.20;96353.00;;;;8274906;28;20198;-71
2023/09/01 10:25:34;;;;;;;14.75;3.13;;;;;21.40;96346.00;;;;8274842;28;20202;-71
2023/09/01 10:29:40;;;;;;;5.70;2.63;;;;;21.20;96349.00;;;;8277393;28;20831;-70
2023/09/01 10:33:43;;;;;;;3.38;2.47;;;;;20.80;96348.00;;;;8272802;28;20260;-69
2023/09/01 10:38:12;;;;;;;2.65;2.45;;;;;20.80;96345.00;;;;8279154;28;20228;-69
2023/09/01 10:42:17;;;;;;;4.15;2.50;;;;;20.80;96352.00;;;;8274751;28;20766;-70
2023/09/01 10:46:29;;;;;;;3.40;2.63;;;;;21.00;96349.00;;;;8276750;28;20205;-72
2023/09/01 10:50:39;;;;;;;3.80;2.20;;;;;21.10;96352.00;;;;8276364;28;20206;-71
2023/09/01 10:54:46;;;;;;;3.38;2.30;;;;;21.30;96351.00;;;;8276016;28;20252;-72
2023/09/01 10:58:52;;;;;;;3.85;2.45;;;;;21.30;96358.00;;;;8276428;28;20198;-71
2023/09/01 11:03:28;;;;;;;3.63;2.28;;;;;20.90;96351.00;;;;8277183;28;20233;-70
2023/09/01 11:07:31;;;;;;;4.32;2.60;;;;;20.70;96358.00;;;;8260912;28;20253;-66
2023/09/01 11:11:36;;;;;;;5.22;2.80;;;;;20.90;96354.00;;;;8276293;28;20198;-66
2023/09/01 11:15:50;;;;;;;2.72;2.42;;;;;21.20;96353.00;;;;8273804;28;20312;-66
2023/09/01 11:19:54;;;;;;;3.30;2.50;;;;;21.40;96354.00;;;;8279398;28;20197;-66
2023/09/01 11:23:58;;;;;;;2.40;2.20;;;;;21.80;96359.00;;;;8281704;28;20276;-66
2023/09/01 11:28:04;;;;;;;2.83;1.90;;;;;22.10;96357.00;;;;8280547;28;20209;-67
2023/09/01 11:32:24;;;;;;;2.58;1.90;;;;;22.10;96362.00;;;;8284551;28;20228;-67
2023/09/01 11:36:30;;;;;;;1.95;1.70;;;;;22.40;96347.00;;;;8281320;28;20253;-67
2023/09/01 11:40:36;;;;;;;3.92;1.70;;;;;22.90;96345.00;;;;8279161;28;20202;-67
2023/09/01 11:44:41;;;;;;;1.80;1.42;;;;;23.80;96343.00;;;;8275949;28;20198;-66
2023/09/01 11:48:48;;;;;;;1.63;1.52;;;;;24.30;96340.00;;;;8279916;28;20277;-66
2023/09/01 11:53:00;;;;;;;1.10;1.10;;;;;24.40;96343.00;;;;8290223;28;20252;-66
2023/09/01 11:57:12;;;;;;;1.38;1.27;;;;;24.50;96346.00;;;;8286028;28;20370;-66
2023/09/01 12:01:17;;;;;;;4.18;1.15;;;;;24.40;96340.00;;;;8262798;28;20201;-67
2023/09/01 12:05:31;;;;;;;1.33;1.23;;;;;24.50;96354.00;;;;8285706;28;20316;-66
2023/09/01 12:09:34;;;;;;;2.30;1.08;;;;;24.50;96355.00;;;;8285820;28;20674;-66
2023/09/01 12:13:44;;;;;;;1.10;1.10;;;;;24.70;96357.00;;;;8284938;28;20222;-66
2023/09/01 12:17:50;;;;;;;2.15;1.40;;;;;24.80;96364.00;;;;8284169;28;20648;-66
2023/09/01 12:21:57;;;;;;;1.33;1.23;;;;;24.70;96365.00;;;;8267591;28;20750;-66
2023/09/01 12:26:01;;;;;;;2.50;1.20;;;;;24.50;96365.00;;;;8284468;28;20292;-67
2023/09/01 12:30:04;;;;;;;1.40;1.40;;;;;23.60;96376.00;;;;8283125;28;20198;-64
2023/09/01 12:34:11;;;;;;;2.13;1.48;;;;;22.70;96369.00;;;;8277988;28;20979;-64
2023/09/01 12:38:16;;;;;;;1.40;1.30;;;;;22.30;96366.00;;;;8284928;28;20206;-66
2023/09/01 12:42:19;;;;;;;1.65;1.55;;;;;22.20;96354.00;;;;8290317;28;20209;-65
2023/09/01 12:46:23;;;;;;;1.45;1.17;;;;;22.00;96356.00;;;;8282504;28;20563;-67
2023/09/01 12:50:26;;;;;;;1.58;1.33;;;;;21.90;96344.00;;;;8283944;28;20639;-66
2023/09/01 12:54:31;;;;;;;3.80;2.03;;;;;22.00;96336.00;;;;8284723;28;20813;-66
2023/09/01 12:58:34;;;;;;;1.50;1.40;;;;;22.10;96343.00;;;;8281870;28;20650;-66
2023/09/01 13:02:38;;;;;;;0.90;0.90;;;;;22.40;96339.00;;;;8278492;28;20341;-67
2023/09/01 13:06:44;;;;;;;1.17;1.10;;;;;22.50;96342.00;;;;8285030;28;20214;-70
2023/09/01 13:10:49;;;;;;;1.85;1.10;;;;;22.80;96352.00;;;;8283607;28;20210;-71
2023/09/01 13:14:57;;;;;;;1.00;1.00;;;;;23.30;96342.00;;;;8283654;28;20228;-71
2023/09/01 13:19:00;;;;;;;1.00;1.00;;;;;23.70;96346.00;;;;8281598;28;20244;-71
2023/09/01 13:23:03;;;;;;;1.30;1.20;;;;;23.80;96350.00;;;;8282755;28;20285;-69
2023/09/01 13:27:08;;;;;;;0.90;0.90;;;;;23.70;96345.00;;;;8280831;28;20287;-69
2023/09/01 13:31:11;;;;;;;1.33;1.25;;;;;23.70;96341.00;;;;8282552;28;20667;-69
2023/09/01 13:35:14;;;;;;;1.65;1.15;;;;;23.80;96335.00;;;;8282506;28;20232;-70
2023/09/01 13:39:17;;;;;;;1.10;1.00;;;;;24.10;96336.00;;;;8281135;28;20306;-68
2023/09/01 13:43:22;;;;;;;1.10;1.00;;;;;24.40;96330.00;;;;8270114;28;20273;-68
2023/09/01 13:47:31;;;;;;;1.13;1.02;;;;;24.80;96332.00;;;;8280762;28;20785;-69
2023/09/01 13:51:35;;;;;;;1.27;1.10;;;;;24.70;96329.00;;;;8282711;28;20206;-69
2023/09/01 13:55:38;;;;;;;1.55;1.33;;;;;24.80;96328.00;;;;8278237;28;21151;-68
2023/09/01 13:59:43;;;;;;;1.02;1.02;;;;;24.80;96331.00;;;;8279618;28;20204;-69
2023/09/01 14:03:47;;;;;;;1.20;1.10;;;;;24.90;96326.00;;;;8279991;28;20229;-68
2023/09/01 14:07:50;;;;;;;0.80;0.80;;;;;25.30;96318.00;;;;8282516;28;20252;-70
2023/09/01 14:11:58;;;;;;;1.15;1.05;;;;;25.90;96329.00;;;;8277155;28;20202;-67
2023/09/01 14:16:10;;;;;;;1.17;0.98;;;;;26.00;96324.00;;;;8280452;28;20217;-67
2023/09/01 14:20:17;;;;;;;0.77;0.77;;;;;25.90;96318.00;;;;8283201;28;20236;-67
2023/09/01 14:24:22;;;;;;;0.80;0.80;;;;;25.80;96315.00;;;;8272835;28;20210;-67
2023/09/01 14:28:25;;;;;;;1.00;0.90;;;;;25.60;96323.00;;;;8279288;28;20341;-67
2023/09/01 14:32:37;;;;;;;1.30;0.90;;;;;25.30;96321.00;;;;8279583;28;20197;-67
2023/09/01 14:36:47;;;;;;;2.25;1.10;;;;;25.50;96320.00;;;;8282558;28;20595;-67
2023/09/01 14:40:51;;;;;;;1.40;1.23;;;;;26.30;96324.00;;;;8279162;28;20857;-70
2023/09/01 14:44:54;;;;;;;0.88;0.88;;;;;26.50;96323.00;;;;8279553;28;20231;-70
2023/09/01 14:49:02;;;;;;;0.90;0.90;;;;;26.30;96316.00;;;;8279643;28;20290;-71
2023/09/01 14:53:06;;;;;;;0.90;0.90;;;;;26.20;96312.00;;;;8279764;28;20587;-71
2023/09/01 14:57:09;;;;;;;1.02;1.02;;;;;25.70;96306.00;;;;8280319;28;20282;-71
2023/09/01 15:01:12;;;;;;;1.27;1.05;;;;;25.90;96308.00;;;;8276360;28;20616;-71
2023/09/01 15:05:19;;;;;;;1.05;1.05;;;;;26.40;96308.00;;;;8280977;28;20237;-71
2023/09/01 15:09:24;;;;;;;1.00;1.00;;;;;26.30;96310.00;;;;8281852;28;20252;-71
2023/09/01 15:13:27;;;;;;;1.35;1.15;;;;;25.70;96318.00;;;;8282044;28;20594;-71
2023/09/01 15:17:31;;;;;;;0.80;0.80;;;;;25.30;96318.00;;;;8284300;28;20229;-71
2023/09/01 15:21:36;;;;;;;1.30;1.20;;;;;25.00;96314.00;;;;8282110;28;20252;-71
2023/09/01 15:25:40;;;;;;;1.27;1.13;;;;;25.10;96303.00;;;;8282374;28;20230;-71
2023/09/01 15:29:43;;;;;;;1.08;1.08;;;;;25.50;96305.00;;;;8282061;28;20785;-71
2023/09/01 15:33:48;;;;;;;1.10;1.10;;;;;25.80;96307.00;;;;8283798;28;20213;-71
2023/09/01 15:37:54;;;;;;;1.27;1.17;;;;;25.70;96291.00;;;;8282648;28;20236;-71
2023/09/01 15:42:00;;;;;;;1.23;1.13;;;;;25.80;96291.00;;;;8265463;28;20711;-71
2023/09/01 15:46:09;;;;;;;1.25;1.20;;;;;26.00;96290.00;;;;8263778;28;20198;-71
2023/09/01 15:50:12;;;;;;;1.00;1.00;;;;;26.40;96285.00;;;;8275912;28;20194;-71
2023/09/01 15:54:18;;;;;;;1.05;1.05;;;;;26.60;96286.00;;;;8280075;28;20206;-72
2023/09/01 15:58:22;;;;;;;1.20;1.10;;;;;26.40;96288.00;;;;8282692;28;20293;-72
2023/09/01 16:02:25;;;;;;;1.08;1.08;;;;;25.90;96293.00;;;;8281569;28;20254;-71
2023/09/01 16:06:34;;;;;;;1.75;1.10;;;;;25.40;96294.00;;;;8283176;28;20211;-71
2023/09/01 16:10:38;;;;;;;1.00;1.00;;;;;25.00;96291.00;;;;8281823;28;20205;-71
2023/09/01 16:14:43;;;;;;;1.33;1.17;;;;;24.80;96300.00;;;;8279477;28;20237;-71
2023/09/01 16:18:46;;;;;;;1.75;1.30;;;;;24.70;96294.00;;;;8262765;28;20663;-71
2023/09/01 16:22:50;;;;;;;1.67;1.20;;;;;24.60;96306.00;;;;8269655;28;20205;-71
2023/09/01 16:26:54;;;;;;;1.10;1.10;;;;;24.60;96302.00;;;;8287104;28;20801;-71
2023/09/01 16:31:00;;;;;;;1.17;1.17;;;;;24.50;96313.00;;;;8287290;28;20229;-71
2023/09/01 16:35:22;;;;;;;1.33;1.23;;;;;24.40;96311.00;;;;8287217;28;20287;-71
2023/09/01 16:39:27;;;;;;;1.05;0.93;;;;;24.50;96306.00;;;;8280107;28;20201;-71
2023/09/01 16:43:32;;;;;;;1.40;1.30;;;;;24.50;96309.00;;;;8282037;28;20202;-71
2023/09/01 16:47:38;;;;;;;0.90;0.90;;;;;24.50;96309.00;;;;8283490;28;20245;-71
2023/09/01 16:51:44;;;;;;;1.20;1.20;;;;;24.40;96314.00;;;;8281874;28;20285;-71
2023/09/01 16:55:47;;;;;;;1.85;1.20;;;;;24.30;96319.00;;;;8279873;28;20218;-71
2023/09/01 16:59:52;;;;;;;1.52;1.20;;;;;24.30;96305.00;;;;8283209;28;20829;-72
2023/09/01 17:03:55;;;;;;;1.20;1.20;;;;;24.30;96305.00;;;;8274524;28;20318;-72
2023/09/01 17:08:03;;;;;;;5.55;1.50;;;;;24.20;96310.00;;;;8280999;28;20234;-71
2023/09/01 17:12:07;;;;;;;1.10;1.10;;;;;24.10;96301.00;;;;8285667;28;20321;-73
2023/09/01 17:16:12;;;;;;;1.23;1.20;;;;;23.90;96299.00;;;;8285312;28;20769;-73
2023/09/01 17:20:16;;;;;;;2.65;1.73;;;;;23.70;96312.00;;;;8282648;28;20663;-75
2023/09/01 17:24:19;;;;;;;2.67;1.20;;;;;23.50;96311.00;;;;8280355;28;20202;-75
2023/09/01 17:28:23;;;;;;;3.60;1.35;;;;;23.30;96311.00;;;;8279543;28;20216;-72
2023/09/01 17:32:28;;;;;;;3.60;1.42;;;;;23.00;96307.00;;;;8263121;28;20203;-73
2023/09/01 17:36:31;;;;;;;5.28;1.40;;;;;22.80;96316.00;;;;8267139;28;20308;-73
2023/09/01 17:40:36;;;;;;;1.75;1.42;;;;;22.60;96327.00;;;;8282176;28;20201;-73
2023/09/01 17:44:39;;;;;;;1.55;1.52;;;;;22.40;96327.00;;;;8278019;28;20225;-73
2023/09/01 17:48:46;;;;;;;2.88;1.40;;;;;22.30;96328.00;;;;8281138;28;20202;-75
2023/09/01 17:52:50;;;;;;;1.92;1.67;;;;;22.10;96332.00;;;;8275261;28;20202;-68
2023/09/01 17:56:54;;;;;;;1.30;1.20;;;;;22.10;96327.00;;;;8279772;28;20248;-68
2023/09/01 18:00:59;;;;;;;4.32;1.50;;;;;21.90;96332.00;;;;8281660;28;20920;-68
2023/09/01 18:05:04;;;;;;;2.17;1.50;;;;;21.80;96335.00;;;;8280078;28;20408;-68
2023/09/01 18:09:17;;;;;;;1.70;1.60;;;;;21.70;96343.00;;;;8282500;28;20205;-68
2023/09/01 18:13:20;;;;;;;5.38;1.70;;;;;21.60;96344.00;;;;8280878;28;20308;-68
2023/09/01 18:17:23;;;;;;;2.00;1.35;;;;;21.50;96350.00;;;;8278202;28;20702;-72
2023/09/01 18:21:32;;;;;;;3.92;1.90;;;;;21.40;96348.00;;;;8275097;28;20680;-72
2023/09/01 18:25:37;;;;;;;3.25;1.85;;;;;21.30;96352.00;;;;8274355;28;20202;-72
2023/09/01 18:29:41;;;;;;;2.70;1.58;;;;;21.20;96354.00;;;;8280053;28;20202;-72
2023/09/01 18:33:46;;;;;;;2.85;1.70;;;;;21.20;96371.00;;;;8280025;28;20212;-72
2023/09/01 18:37:56;;;;;;;1.73;1.63;;;;;21.20;96376.00;;;;8280049;28;20734;-74
2023/09/01 18:42:00;;;;;;;2.03;1.63;;;;;21.10;96375.00;;;;8277057;28;20284;-72
2023/09/01 18:46:06;;;;;;;1.63;1.52;;;;;20.90;96382.00;;;;8275649;28;20206;-73
2023/09/01 18:50:10;;;;;;;1.48;1.35;;;;;20.80;96377.00;;;;8280518;28;20217;-72
2023/09/01 18:54:24;;;;;;;1.80;1.42;;;;;20.70;96386.00;;;;8280681;28;20312;-72
2023/09/01 18:58:30;;;;;;;1.75;1.42;;;;;20.60;96382.00;;;;8279692;28;20231;-72
2023/09/01 19:02:37;;;;;;;2.78;1.65;;;;;20.50;96383.00;;;;8277981;28;20325;-72
2023/09/01 19:06:42;;;;;;;3.95;1.60;;;;;20.30;96391.00;;;;8281506;28;20199;-72
2023/09/01 19:10:48;;;;;;;1.80;1.67;;;;;20.10;96403.00;;;;8277887;28;20559;-72
2023/09/01 19:14:51;;;;;;;2.15;1.95;;;;;20.00;96406.00;;;;8279241;28;20194;-73
2023/09/01 19:18:55;;;;;;;1.98;1.70;;;;;19.80;96406.00;;;;8277955;28;20226;-73
2023/09/01 19:23:05;;;;;;;1.67;1.63;;;;;19.70;96404.00;;;;8279103;28;20277;-73
2023/09/01 19:27:11;;;;;;;3.20;2.00;;;;;19.60;96407.00;;;;8277653;28;20210;-73
2023/09/01 19:31:16;;;;;;;3.78;2.00;;;;;19.40;96407.00;;;;8263786;28;20205;-72
2023/09/01 19:35:23;;;;;;;2.63;1.83;;;;;19.30;96413.00;;;;8279576;28;20206;-72
2023/09/01 19:39:28;;;;;;;3.35;1.80;;;;;19.10;96419.00;;;;8279905;28;20233;-72
2023/09/01 19:43:35;;;;;;;3.42;1.98;;;;;18.90;96413.00;;;;8275706;28;20667;-73
2023/09/01 19:47:38;;;;;;;5.70;1.88;;;;;18.80;96420.00;;;;8272663;28;20249;-72
2023/09/01 19:51:47;;;;;;;3.22;2.08;;;;;18.60;96420.00;;;;8280591;28;20206;-72
2023/09/01 19:55:50;;;;;;;7.20;2.30;;;;;18.60;96423.00;;;;8281644;28;20209;-72
2023/09/01 19:59:54;;;;;;;2.88;1.95;;;;;18.60;96418.00;;;;8286647;28;20828;-72
2023/09/01 20:04:01;;;;;;;5.45;1.95;;;;;18.60;96427.00;;;;8282883;28;20234;-72
2023/09/01 20:08:06;;;;;;;2.80;2.10;;;;;18.60;96424.00;;;;8268517;28;20217;-72
2023/09/01 20:12:21;;;;;;;3.45;2.30;;;;;18.70;96425.00;;;;8280101;28;20289;-72
2023/09/01 20:16:29;;;;;;;3.92;2.10;;;;;18.70;96437.00;;;;8282778;28;20217;-72
2023/09/01 20:20:33;;;;;;;6.15;3.10;;;;;18.70;96429.00;;;;8283205;28;20213;-72
2023/09/01 20:24:36;;;;;;;7.57;2.72;;;;;18.80;96428.00;;;;8281223;28;20888;-72